Time;durP1;ratioP1;P1;durP2;ratioP2;P2;SDS_P1;SDS_P2;PMS_P1;PMS_P2;Temp;Humidity;BMP_temperature;BMP_pressure;BME280_temperature;BME280_humidity;BME280_pressure;Samples;Min_cycle;Max_cycle;Signal;HPM_P1;HPM_P2
2022/11/23 00:00:21;;;;;;;13.73;6.15;;;;;;;;;;1033019;28;20113;-76
2022/11/23 00:00:52;;;;;;;12.40;4.78;;;;;;;;;;1028745;28;20054;-76
2022/11/23 00:01:27;;;;;;;9.07;4.88;;;;;;;;;;1028799;28;20372;-76
2022/11/23 00:01:57;;;;;;;12.75;4.85;;;;;;;;;;1029777;28;20041;-76
2022/11/23 00:02:28;;;;;;;13.23;6.05;;;;;;;;;;1029307;28;20041;-76
2022/11/23 00:02:59;;;;;;;7.75;4.57;;;;;;;;;;1029373;28;20030;-76
2022/11/23 00:03:29;;;;;;;10.07;4.85;;;;;;;;;;1029745;28;20018;-76
2022/11/23 00:04:01;;;;;;;10.60;5.57;;;;;;;;;;1029417;28;20317;-76
2022/11/23 00:04:32;;;;;;;14.02;5.95;;;;;;;;;;1029600;28;20057;-76
2022/11/23 00:05:02;;;;;;;9.75;4.07;;;;;;;;;;1029416;28;20022;-76
2022/11/23 00:05:33;;;;;;;6.40;3.42;;;;;;;;;;1029504;28;20197;-76
2022/11/23 00:06:03;;;;;;;14.60;6.10;;;;;;;;;;1029965;28;20033;-76
2022/11/23 00:06:34;;;;;;;16.73;4.78;;;;;;;;;;1030120;28;20027;-76
2022/11/23 00:07:05;;;;;;;8.82;4.35;;;;;;;;;;1030053;28;20019;-76
2022/11/23 00:07:36;;;;;;;12.02;4.47;;;;;;;;;;1032080;28;20549;-76
2022/11/23 00:08:06;;;;;;;8.45;4.35;;;;;;;;;;1031938;28;20572;-76
2022/11/23 00:08:37;;;;;;;10.25;4.38;;;;;;;;;;1032117;28;20476;-76
2022/11/23 00:09:09;;;;;;;16.80;5.30;;;;;;;;;;1030027;28;20037;-76
2022/11/23 00:09:39;;;;;;;14.77;4.78;;;;;;;;;;1030374;28;20652;-76
2022/11/23 00:10:10;;;;;;;7.15;4.22;;;;;;;;;;1029428;28;20075;-76
2022/11/23 00:10:40;;;;;;;14.80;4.03;;;;;;;;;;1029417;28;20659;-76
2022/11/23 00:11:11;;;;;;;8.10;4.70;;;;;;;;;;1030117;28;20026;-76
2022/11/23 00:11:42;;;;;;;7.90;4.63;;;;;;;;;;1030366;28;20034;-76
2022/11/23 00:12:13;;;;;;;6.72;4.05;;;;;;;;;;1030039;28;20030;-76
2022/11/23 00:12:43;;;;;;;9.23;4.22;;;;;;;;;;1029843;28;20536;-76
2022/11/23 00:13:14;;;;;;;11.13;4.20;;;;;;;;;;1029938;28;20030;-76
2022/11/23 00:13:45;;;;;;;7.18;5.00;;;;;;;;;;1029963;28;20448;-76
2022/11/23 00:14:15;;;;;;;8.18;4.68;;;;;;;;;;1029808;28;20078;-76
2022/11/23 00:14:46;;;;;;;10.60;4.32;;;;;;;;;;1030289;28;20498;-76
2022/11/23 00:15:16;;;;;;;8.85;4.57;;;;;;;;;;1030413;28;20109;-76
2022/11/23 00:15:47;;;;;;;8.60;3.90;;;;;;;;;;1030162;28;20060;-76
2022/11/23 00:16:19;;;;;;;11.75;4.75;;;;;;;;;;1030050;28;20038;-76
2022/11/23 00:16:49;;;;;;;12.73;5.28;;;;;;;;;;1029028;28;20030;-76
2022/11/23 00:17:20;;;;;;;11.45;4.22;;;;;;;;;;1029602;28;20049;-76
2022/11/23 00:17:50;;;;;;;9.05;4.60;;;;;;;;;;1029711;28;20078;-76
2022/11/23 00:18:21;;;;;;;13.85;5.00;;;;;;;;;;1029808;28;20019;-76
2022/11/23 00:18:55;;;;;;;18.13;6.32;;;;;;;;;;1029781;28;20018;-76
2022/11/23 00:19:26;;;;;;;10.25;5.88;;;;;;;;;;1028557;28;20030;-76
2022/11/23 00:19:57;;;;;;;12.00;6.05;;;;;;;;;;1026293;28;20459;-76
2022/11/23 00:20:27;;;;;;;10.52;6.05;;;;;;;;;;1030132;28;20114;-76
2022/11/23 00:20:58;;;;;;;14.07;5.25;;;;;;;;;;1029725;28;20038;-76
2022/11/23 00:21:30;;;;;;;14.80;6.28;;;;;;;;;;1030334;28;20027;-76
2022/11/23 00:22:00;;;;;;;19.23;6.28;;;;;;;;;;1030296;28;20014;-76
2022/11/23 00:22:31;;;;;;;13.75;6.35;;;;;;;;;;1030305;28;20022;-76
2022/11/23 00:23:01;;;;;;;10.25;5.20;;;;;;;;;;1030042;28;20475;-76
2022/11/23 00:23:32;;;;;;;10.20;5.75;;;;;;;;;;1030154;28;20031;-76
2022/11/23 00:24:03;;;;;;;15.30;5.95;;;;;;;;;;1030123;28;20018;-76
2022/11/23 00:24:33;;;;;;;14.55;6.22;;;;;;;;;;1030309;28;20022;-76
2022/11/23 00:25:04;;;;;;;10.70;5.90;;;;;;;;;;1030121;28;20042;-76
2022/11/23 00:25:35;;;;;;;11.52;5.32;;;;;;;;;;1030298;28;20022;-76
2022/11/23 00:26:06;;;;;;;17.38;6.40;;;;;;;;;;1028642;28;20518;-76
2022/11/23 00:26:36;;;;;;;13.77;5.85;;;;;;;;;;1030082;28;20011;-76
2022/11/23 00:27:07;;;;;;;12.13;5.05;;;;;;;;;;1030046;28;20030;-76
2022/11/23 00:27:37;;;;;;;14.95;6.22;;;;;;;;;;1030409;28;20546;-76
2022/11/23 00:28:08;;;;;;;16.63;6.10;;;;;;;;;;1030271;28;20030;-76
2022/11/23 00:28:39;;;;;;;13.25;6.68;;;;;;;;;;1034060;28;20084;-76
2022/11/23 00:29:10;;;;;;;14.80;7.18;;;;;;;;;;1033768;28;20026;-76
2022/11/23 00:29:40;;;;;;;26.80;6.53;;;;;;;;;;1034154;28;20057;-76
2022/11/23 00:30:11;;;;;;;11.65;5.65;;;;;;;;;;1033967;28;20026;-76
2022/11/23 00:30:41;;;;;;;19.73;6.80;;;;;;;;;;1033836;28;20053;-76
2022/11/23 00:31:14;;;;;;;17.80;6.03;;;;;;;;;;1034287;28;20014;-76
2022/11/23 00:31:44;;;;;;;13.50;6.00;;;;;;;;;;1029859;28;20023;-76
2022/11/23 00:32:15;;;;;;;12.38;5.47;;;;;;;;;;1029581;28;20117;-76
2022/11/23 00:32:45;;;;;;;11.68;4.53;;;;;;;;;;1028704;28;20029;-76
2022/11/23 00:33:16;;;;;;;17.63;6.32;;;;;;;;;;1030000;28;20486;-76
2022/11/23 00:33:51;;;;;;;10.15;4.50;;;;;;;;;;1033448;28;20063;-76
2022/11/23 00:34:21;;;;;;;15.50;5.18;;;;;;;;;;1034462;28;20077;-76
2022/11/23 00:34:52;;;;;;;13.60;5.47;;;;;;;;;;1033592;28;20113;-76
2022/11/23 00:35:22;;;;;;;12.70;5.90;;;;;;;;;;1033516;28;20100;-76
2022/11/23 00:36:03;;;;;;;19.27;5.78;;;;;;;;;;1030812;28;20065;-76
2022/11/23 00:36:34;;;;;;;15.27;4.55;;;;;;;;;;1030531;28;20027;-76
2022/11/23 00:37:04;;;;;;;10.35;4.70;;;;;;;;;;1029230;28;20026;-76
2022/11/23 00:37:35;;;;;;;10.75;4.60;;;;;;;;;;1033759;28;20121;-76
2022/11/23 00:38:05;;;;;;;17.15;4.68;;;;;;;;;;1032994;28;20413;-76
2022/11/23 00:38:36;;;;;;;16.50;5.70;;;;;;;;;;1033798;28;20108;-76
2022/11/23 00:39:07;;;;;;;11.88;4.82;;;;;;;;;;1033549;28;20103;-76
2022/11/23 00:39:38;;;;;;;20.33;5.15;;;;;;;;;;1030266;28;20474;-76
2022/11/23 00:40:08;;;;;;;25.00;6.00;;;;;;;;;;1029926;28;20052;-76
2022/11/23 00:40:39;;;;;;;25.13;8.18;;;;;;;;;;1034931;28;20026;-76
2022/11/23 00:41:11;;;;;;;26.20;6.32;;;;;;;;;;1031558;28;20431;-76
2022/11/23 00:41:42;;;;;;;23.00;6.47;;;;;;;;;;1033797;28;20037;-76
2022/11/23 00:42:12;;;;;;;28.83;7.05;;;;;;;;;;1029598;28;20494;-76
2022/11/23 00:42:43;;;;;;;30.25;7.53;;;;;;;;;;1029768;28;20026;-76
2022/11/23 00:43:13;;;;;;;37.60;8.25;;;;;;;;;;1030326;28;20034;-76
2022/11/23 00:43:44;;;;;;;21.52;7.38;;;;;;;;;;1029122;28;20033;-76
2022/11/23 00:44:15;;;;;;;23.65;7.72;;;;;;;;;;1029748;28;20033;-76
2022/11/23 00:44:45;;;;;;;19.80;6.03;;;;;;;;;;1029741;28;20085;-76
2022/11/23 00:45:16;;;;;;;22.75;7.70;;;;;;;;;;1025993;28;20031;-76
2022/11/23 00:45:49;;;;;;;22.25;7.47;;;;;;;;;;1029744;28;20022;-76
2022/11/23 00:46:21;;;;;;;26.15;8.05;;;;;;;;;;1029964;28;20027;-76
2022/11/23 00:46:52;;;;;;;21.95;7.22;;;;;;;;;;1029358;28;20023;-77
2022/11/23 00:47:23;;;;;;;15.25;5.88;;;;;;;;;;1033236;28;20113;-77
2022/11/23 00:47:53;;;;;;;15.30;5.40;;;;;;;;;;1029651;28;20418;-76
2022/11/23 00:48:24;;;;;;;9.70;4.53;;;;;;;;;;1029206;28;20027;-76
2022/11/23 00:48:55;;;;;;;12.57;4.65;;;;;;;;;;1030703;28;20030;-76
2022/11/23 00:49:26;;;;;;;13.48;6.47;;;;;;;;;;1029161;28;20033;-76
2022/11/23 00:49:56;;;;;;;12.65;5.85;;;;;;;;;;1029113;28;20038;-76
2022/11/23 00:50:27;;;;;;;14.00;5.88;;;;;;;;;;1029907;28;20117;-76
2022/11/23 00:50:58;;;;;;;9.95;4.97;;;;;;;;;;1026349;28;20110;-76
2022/11/23 00:51:31;;;;;;;11.38;4.90;;;;;;;;;;1021828;28;20091;-76
2022/11/23 00:52:01;;;;;;;14.80;5.93;;;;;;;;;;1021714;29;20030;-76
2022/11/23 00:52:32;;;;;;;10.77;4.60;;;;;;;;;;1024985;28;20400;-76
2022/11/23 00:53:02;;;;;;;10.95;4.30;;;;;;;;;;1030509;28;20064;-76
2022/11/23 00:53:33;;;;;;;12.02;4.50;;;;;;;;;;1030175;28;20018;-76
2022/11/23 00:54:04;;;;;;;7.90;3.92;;;;;;;;;;1030097;28;20041;-76
2022/11/23 00:54:35;;;;;;;13.57;3.55;;;;;;;;;;1033580;28;20385;-76
2022/11/23 00:55:05;;;;;;;12.40;4.57;;;;;;;;;;1033722;28;20029;-76
2022/11/23 00:55:36;;;;;;;8.95;4.60;;;;;;;;;;1033793;28;20495;-76
2022/11/23 00:56:07;;;;;;;8.50;3.47;;;;;;;;;;1033338;28;20065;-76
2022/11/23 00:56:37;;;;;;;7.13;3.58;;;;;;;;;;1034779;28;20196;-76
2022/11/23 00:57:08;;;;;;;16.08;5.25;;;;;;;;;;1032681;28;20053;-76
2022/11/23 00:57:39;;;;;;;10.23;3.65;;;;;;;;;;1034038;28;20604;-76
2022/11/23 00:58:09;;;;;;;10.13;4.00;;;;;;;;;;1033416;28;20030;-76
2022/11/23 00:58:40;;;;;;;9.45;4.13;;;;;;;;;;1031010;28;20486;-76
2022/11/23 00:59:10;;;;;;;9.10;4.57;;;;;;;;;;1029918;28;20042;-76
2022/11/23 00:59:41;;;;;;;6.05;2.97;;;;;;;;;;1030268;28;20031;-76
2022/11/23 01:00:12;;;;;;;12.15;4.13;;;;;;;;;;1029660;28;20571;-76
2022/11/23 01:00:43;;;;;;;9.27;3.15;;;;;;;;;;1030298;28;20026;-76
2022/11/23 01:01:14;;;;;;;9.70;3.70;;;;;;;;;;1030173;28;20022;-76
2022/11/23 01:01:44;;;;;;;13.38;5.85;;;;;;;;;;1031416;28;20178;-76
2022/11/23 01:02:15;;;;;;;10.63;4.25;;;;;;;;;;1033691;28;20205;-76
2022/11/23 01:02:46;;;;;;;14.32;4.72;;;;;;;;;;1033517;28;20093;-76
2022/11/23 01:03:16;;;;;;;12.18;4.15;;;;;;;;;;1034044;28;20571;-76
2022/11/23 01:03:51;;;;;;;8.65;3.90;;;;;;;;;;1029899;28;20030;-76
2022/11/23 01:04:22;;;;;;;10.15;4.13;;;;;;;;;;1029805;28;21177;-76
2022/11/23 01:04:52;;;;;;;8.27;4.53;;;;;;;;;;1029808;28;20019;-76
2022/11/23 01:05:23;;;;;;;13.65;4.30;;;;;;;;;;1030076;28;20089;-76
2022/11/23 01:05:53;;;;;;;11.68;5.00;;;;;;;;;;1029823;28;20018;-76
2022/11/23 01:06:26;;;;;;;11.15;4.20;;;;;;;;;;1029497;28;20061;-76
2022/11/23 01:06:56;;;;;;;13.65;5.28;;;;;;;;;;1029261;28;20023;-76
2022/11/23 01:07:29;;;;;;;21.92;5.60;;;;;;;;;;1029630;28;20030;-76
2022/11/23 01:07:59;;;;;;;16.30;4.32;;;;;;;;;;1029644;28;20109;-76
2022/11/23 01:08:30;;;;;;;17.00;5.60;;;;;;;;;;1030255;28;20026;-76
2022/11/23 01:09:03;;;;;;;19.58;5.63;;;;;;;;;;1029122;28;20030;-76
2022/11/23 01:09:33;;;;;;;22.30;6.65;;;;;;;;;;1030955;28;20018;-76
2022/11/23 01:10:04;;;;;;;20.73;5.07;;;;;;;;;;1030414;28;20025;-76
2022/11/23 01:10:35;;;;;;;24.42;6.22;;;;;;;;;;1030572;28;20026;-76
2022/11/23 01:11:07;;;;;;;37.45;6.70;;;;;;;;;;1029417;28;20049;-76
2022/11/23 01:11:37;;;;;;;18.10;4.03;;;;;;;;;;1031527;28;20427;-76
2022/11/23 01:12:08;;;;;;;14.40;4.55;;;;;;;;;;1030997;28;20027;-76
2022/11/23 01:12:39;;;;;;;14.82;4.60;;;;;;;;;;1030417;28;20022;-76
2022/11/23 01:13:09;;;;;;;15.77;5.03;;;;;;;;;;1031356;28;20015;-76
2022/11/23 01:13:40;;;;;;;17.35;5.15;;;;;;;;;;1030489;28;20034;-76
2022/11/23 01:14:11;;;;;;;13.45;5.00;;;;;;;;;;1030310;28;20030;-76
2022/11/23 01:14:41;;;;;;;12.88;4.32;;;;;;;;;;1030117;28;20158;-76
2022/11/23 01:15:12;;;;;;;8.55;4.35;;;;;;;;;;1030574;28;20479;-76
2022/11/23 01:15:49;;;;;;;16.48;4.20;;;;;;;;;;1031053;28;20076;-76
2022/11/23 01:16:27;;;;;;;14.75;4.05;;;;;;;;;;1031435;28;20022;-77
2022/11/23 01:16:58;;;;;;;16.58;4.45;;;;;;;;;;1031476;28;20554;-76
2022/11/23 01:17:28;;;;;;;17.75;4.32;;;;;;;;;;1033192;28;20069;-76
2022/11/23 01:17:59;;;;;;;15.70;4.25;;;;;;;;;;1029366;28;20026;-76
2022/11/23 01:18:30;;;;;;;17.23;4.63;;;;;;;;;;1029342;28;20026;-76
2022/11/23 01:19:02;;;;;;;11.63;4.03;;;;;;;;;;1028682;28;20023;-77
2022/11/23 01:19:33;;;;;;;17.60;5.70;;;;;;;;;;1027600;28;20034;-76
2022/11/23 01:20:03;;;;;;;13.25;5.75;;;;;;;;;;1030348;28;20030;-76
2022/11/23 01:20:34;;;;;;;21.52;5.30;;;;;;;;;;1033620;28;20064;-77
2022/11/23 01:21:05;;;;;;;9.88;4.63;;;;;;;;;;1032677;28;20084;-75
2022/11/23 01:21:36;;;;;;;17.80;4.82;;;;;;;;;;1030594;28;20026;-77
2022/11/23 01:22:06;;;;;;;15.35;5.10;;;;;;;;;;1030319;28;20140;-77
2022/11/23 01:22:37;;;;;;;22.95;5.93;;;;;;;;;;1029925;28;20018;-76
2022/11/23 01:23:07;;;;;;;21.70;5.43;;;;;;;;;;1029599;28;20443;-76
2022/11/23 01:23:38;;;;;;;19.13;4.93;;;;;;;;;;1031137;28;20022;-76
2022/11/23 01:24:27;;;;;;;23.73;5.63;;;;;;;;;;1029339;28;20513;-75
2022/11/23 01:24:57;;;;;;;19.60;5.68;;;;;;;;;;1029409;28;20019;-76
2022/11/23 01:25:28;;;;;;;12.82;5.28;;;;;;;;;;1030477;28;20026;-74
2022/11/23 01:26:08;;;;;;;18.42;6.28;;;;;;;;;;1029181;28;20023;-78
2022/11/23 01:26:39;;;;;;;15.38;5.90;;;;;;;;;;1030703;28;20071;-79
2022/11/23 01:27:10;;;;;;;16.00;5.95;;;;;;;;;;1029190;28;20030;-76
2022/11/23 01:27:40;;;;;;;13.48;5.18;;;;;;;;;;1029574;28;20027;-76
2022/11/23 01:28:11;;;;;;;9.18;3.55;;;;;;;;;;1030372;28;20105;-75
2022/11/23 01:28:42;;;;;;;16.88;5.30;;;;;;;;;;1029825;28;20026;-75
2022/11/23 01:29:12;;;;;;;9.52;3.92;;;;;;;;;;1029018;28;20022;-78
2022/11/23 01:29:43;;;;;;;12.95;4.88;;;;;;;;;;1030668;28;20015;-76
2022/11/23 01:30:14;;;;;;;11.98;4.95;;;;;;;;;;1034914;28;20026;-77
2022/11/23 01:30:45;;;;;;;10.40;4.15;;;;;;;;;;1033915;28;20022;-77
2022/11/23 01:31:17;;;;;;;13.38;5.65;;;;;;;;;;1036172;28;20602;-79
2022/11/23 01:31:48;;;;;;;15.32;5.15;;;;;;;;;;1032166;28;20027;-79
2022/11/23 01:32:19;;;;;;;14.75;5.28;;;;;;;;;;1033834;28;20030;-79
2022/11/23 01:32:49;;;;;;;7.60;4.45;;;;;;;;;;1031840;28;20021;-79
2022/11/23 01:33:20;;;;;;;10.98;4.45;;;;;;;;;;1032033;28;20113;-78
2022/11/23 01:33:57;;;;;;;11.38;4.13;;;;;;;;;;1032122;28;20121;-79
2022/11/23 01:34:28;;;;;;;9.13;4.25;;;;;;;;;;1032814;28;20152;-79
2022/11/23 01:34:59;;;;;;;11.38;4.50;;;;;;;;;;1028749;28;20094;-80
2022/11/23 01:35:29;;;;;;;15.02;4.97;;;;;;;;;;1030535;28;20030;-80
2022/11/23 01:36:00;;;;;;;9.48;4.70;;;;;;;;;;1027755;28;20015;-80
2022/11/23 01:36:32;;;;;;;14.63;4.55;;;;;;;;;;1038569;23;20038;-75
2022/11/23 01:37:02;;;;;;;7.82;3.65;;;;;;;;;;1034839;28;20017;-74
2022/11/23 01:37:34;;;;;;;11.48;4.75;;;;;;;;;;1037488;28;20092;-74
2022/11/23 01:38:07;;;;;;;10.38;4.20;;;;;;;;;;1038110;28;20061;-75
2022/11/23 01:38:38;;;;;;;16.73;4.68;;;;;;;;;;1038147;28;20021;-75
2022/11/23 01:39:09;;;;;;;11.57;4.68;;;;;;;;;;1036800;28;20168;-75
2022/11/23 01:39:41;;;;;;;11.27;5.93;;;;;;;;;;1031092;28;20426;-77
2022/11/23 01:40:11;;;;;;;22.23;5.32;;;;;;;;;;1030611;28;20041;-75
2022/11/23 01:40:42;;;;;;;20.83;7.05;;;;;;;;;;1028743;28;20074;-76
2022/11/23 01:41:15;;;;;;;12.40;6.15;;;;;;;;;;1029637;28;20122;-75
2022/11/23 01:41:46;;;;;;;29.38;10.45;;;;;;;;;;1038141;28;20029;-76
2022/11/23 01:42:18;;;;;;;31.27;11.52;;;;;;;;;;1034722;28;20510;-76
2022/11/23 01:42:57;;;;;;;21.67;10.82;;;;;;;;;;1032693;28;20030;-76
2022/11/23 01:43:28;;;;;;;29.17;9.85;;;;;;;;;;1038035;28;20022;-76
2022/11/23 01:43:59;;;;;;;30.50;9.25;;;;;;;;;;1037960;28;20040;-76
2022/11/23 01:44:32;;;;;;;20.35;9.57;;;;;;;;;;1036123;28;20568;-75
2022/11/23 01:45:36;;;;;;;27.15;8.70;;;;;;;;;;1035299;28;20046;-77
2022/11/23 01:46:07;;;;;;;28.00;11.20;;;;;;;;;;1021444;29;20146;-75
2022/11/23 01:46:38;;;;;;;18.83;7.85;;;;;;;;;;1025127;29;20027;-76
2022/11/23 01:47:09;;;;;;;38.25;15.38;;;;;;;;;;1027460;28;20019;-76
2022/11/23 01:47:40;;;;;;;37.00;12.50;;;;;;;;;;1034202;28;20035;-75
2022/11/23 01:48:17;;;;;;;39.47;13.43;;;;;;;;;;1035263;28;20022;-76
2022/11/23 01:48:54;;;;;;;32.40;14.55;;;;;;;;;;1035055;28;20038;-75
2022/11/23 01:49:26;;;;;;;30.77;12.05;;;;;;;;;;1039720;28;20049;-75
2022/11/23 01:49:57;;;;;;;41.35;13.48;;;;;;;;;;1040465;28;20446;-76
2022/11/23 01:50:28;;;;;;;44.42;15.55;;;;;;;;;;1038531;28;20049;-76
2022/11/23 01:51:01;;;;;;;41.58;16.60;;;;;;;;;;1035553;28;20545;-75
2022/11/23 01:51:37;;;;;;;38.33;14.32;;;;;;;;;;1036637;28;20088;-76
2022/11/23 01:52:17;;;;;;;36.85;14.45;;;;;;;;;;1035249;28;20057;-75
2022/11/23 01:52:50;;;;;;;34.40;14.00;;;;;;;;;;1034197;28;20125;-75
2022/11/23 01:53:21;;;;;;;44.15;16.77;;;;;;;;;;1034614;28;20129;-76
2022/11/23 01:53:55;;;;;;;53.38;21.17;;;;;;;;;;1035165;28;20026;-75
2022/11/23 01:54:30;;;;;;;43.13;18.52;;;;;;;;;;1035930;28;20042;-75
2022/11/23 01:55:02;;;;;;;46.60;20.30;;;;;;;;;;1036268;28;20474;-75
2022/11/23 01:55:33;;;;;;;40.55;19.50;;;;;;;;;;1038274;28;20018;-76
2022/11/23 01:56:06;;;;;;;58.10;22.20;;;;;;;;;;1039093;28;20079;-75
2022/11/23 01:56:39;;;;;;;52.65;20.70;;;;;;;;;;1035394;28;20041;-75
2022/11/23 01:57:15;;;;;;;63.22;24.77;;;;;;;;;;1040351;28;20064;-75
2022/11/23 01:57:47;;;;;;;58.55;24.27;;;;;;;;;;1036187;28;20682;-81
2022/11/23 01:58:20;;;;;;;76.82;25.10;;;;;;;;;;1039645;28;20044;-77
2022/11/23 01:58:53;;;;;;;57.90;23.95;;;;;;;;;;1038119;28;20528;-80
2022/11/23 01:59:26;;;;;;;73.82;26.70;;;;;;;;;;1037441;28;20525;-78
2022/11/23 02:00:01;;;;;;;64.75;25.40;;;;;;;;;;1039307;28;20112;-81
2022/11/23 02:00:33;;;;;;;55.50;23.02;;;;;;;;;;1037782;28;20045;-78
2022/11/23 02:01:05;;;;;;;63.83;23.50;;;;;;;;;;1031952;28;20410;-77
2022/11/23 02:01:36;;;;;;;56.38;22.85;;;;;;;;;;1033264;28;20037;-78
2022/11/23 02:02:08;;;;;;;59.85;23.38;;;;;;;;;;1035009;28;20026;-75
2022/11/23 02:02:39;;;;;;;47.20;24.55;;;;;;;;;;1040289;28;20057;-73
2022/11/23 02:03:10;;;;;;;58.08;23.40;;;;;;;;;;1035099;28;20022;-74
2022/11/23 02:03:42;;;;;;;59.13;24.75;;;;;;;;;;1035106;28;20600;-74
2022/11/23 02:04:18;;;;;;;53.17;22.58;;;;;;;;;;1034740;28;20093;-76
2022/11/23 02:04:52;;;;;;;45.50;20.48;;;;;;;;;;1039325;28;20036;-73
2022/11/23 02:05:26;;;;;;;51.05;21.20;;;;;;;;;;1040570;28;20017;-75
2022/11/23 02:06:00;;;;;;;50.70;22.35;;;;;;;;;;1038403;28;20517;-75
2022/11/23 02:06:32;;;;;;;46.67;19.00;;;;;;;;;;1040589;28;20025;-73
2022/11/23 02:07:03;;;;;;;65.95;21.23;;;;;;;;;;1039431;28;20029;-74
2022/11/23 02:07:39;;;;;;;39.63;18.17;;;;;;;;;;1040574;28;20120;-78
2022/11/23 02:08:11;;;;;;;34.30;16.35;;;;;;;;;;1040476;28;20192;-78
2022/11/23 02:08:42;;;;;;;36.63;16.67;;;;;;;;;;1040758;28;20547;-75
2022/11/23 02:09:17;;;;;;;34.53;17.35;;;;;;;;;;1038937;28;20069;-74
2022/11/23 02:09:49;;;;;;;33.03;15.55;;;;;;;;;;1038250;28;20072;-75
2022/11/23 02:10:22;;;;;;;37.80;16.98;;;;;;;;;;1039067;28;20029;-75
2022/11/23 02:10:57;;;;;;;34.38;15.73;;;;;;;;;;1040659;28;20025;-78
2022/11/23 02:11:28;;;;;;;33.10;14.52;;;;;;;;;;1036852;28;20605;-74
2022/11/23 02:12:00;;;;;;;28.88;14.70;;;;;;;;;;1035164;28;20386;-74
2022/11/23 02:12:31;;;;;;;32.70;13.55;;;;;;;;;;1031033;28;20132;-74
2022/11/23 02:13:06;;;;;;;42.33;15.77;;;;;;;;;;1031919;28;20025;-75
2022/11/23 02:13:37;;;;;;;42.40;13.85;;;;;;;;;;1035413;28;20030;-75
2022/11/23 02:14:09;;;;;;;35.33;14.35;;;;;;;;;;1034970;28;20026;-76
2022/11/23 02:14:41;;;;;;;32.85;15.40;;;;;;;;;;1032357;28;20030;-78
2022/11/23 02:15:13;;;;;;;42.05;15.35;;;;;;;;;;1036201;28;20417;-79
2022/11/23 02:15:46;;;;;;;54.83;16.63;;;;;;;;;;1033625;28;20030;-75
2022/11/23 02:16:18;;;;;;;31.40;14.05;;;;;;;;;;1037651;28;20022;-79
2022/11/23 02:16:49;;;;;;;33.85;12.98;;;;;;;;;;1039444;28;20373;-75
2022/11/23 02:17:20;;;;;;;40.88;15.10;;;;;;;;;;1040101;28;20028;-77
2022/11/23 02:17:52;;;;;;;31.88;15.23;;;;;;;;;;1038461;28;20017;-76
2022/11/23 02:18:24;;;;;;;31.05;13.57;;;;;;;;;;1036534;28;20022;-79
2022/11/23 02:18:55;;;;;;;36.95;13.88;;;;;;;;;;1038291;28;20022;-76
2022/11/23 02:19:46;;;;;;;30.75;13.15;;;;;;;;;;1036443;28;20022;-73
2022/11/23 02:20:18;;;;;;;30.67;12.82;;;;;;;;;;1035835;28;20026;-75
2022/11/23 02:20:49;;;;;;;30.90;12.75;;;;;;;;;;1035835;28;20450;-75
2022/11/23 02:21:20;;;;;;;33.67;13.13;;;;;;;;;;1039698;28;20065;-74
2022/11/23 02:21:51;;;;;;;31.50;14.00;;;;;;;;;;1038419;28;20032;-75
2022/11/23 02:22:25;;;;;;;25.10;12.45;;;;;;;;;;1043358;28;20025;-78
2022/11/23 02:23:03;;;;;;;27.30;13.63;;;;;;;;;;1040269;28;20025;-76
2022/11/23 02:23:43;;;;;;;27.13;11.90;;;;;;;;;;1039961;28;20125;-76
2022/11/23 02:24:18;;;;;;;29.48;11.40;;;;;;;;;;1039234;28;20033;-74
2022/11/23 02:24:52;;;;;;;28.30;11.88;;;;;;;;;;1035505;28;20051;-74
2022/11/23 02:25:41;;;;;;;31.63;12.00;;;;;;;;;;1037971;28;20018;-75
2022/11/23 02:26:22;;;;;;;32.13;13.05;;;;;;;;;;1036902;28;20028;-75
2022/11/23 02:26:54;;;;;;;32.90;11.98;;;;;;;;;;1034339;28;20084;-75
2022/11/23 02:27:25;;;;;;;25.83;12.23;;;;;;;;;;1033911;28;20357;-74
2022/11/23 02:27:58;;;;;;;33.38;14.80;;;;;;;;;;1034614;28;20033;-74
2022/11/23 02:28:49;;;;;;;47.05;19.42;;;;;;;;;;1035196;28;20029;-75
2022/11/23 02:29:22;;;;;;;43.20;13.98;;;;;;;;;;1038466;28;20084;-73
2022/11/23 02:29:54;;;;;;;33.58;13.27;;;;;;;;;;1038406;28;20452;-73
2022/11/23 02:30:25;;;;;;;34.42;14.57;;;;;;;;;;1037576;28;20119;-74
2022/11/23 02:30:55;;;;;;;34.13;16.55;;;;;;;;;;1038476;28;20428;-74
2022/11/23 02:31:26;;;;;;;39.25;17.00;;;;;;;;;;1039272;28;20025;-74
2022/11/23 02:31:57;;;;;;;41.03;16.67;;;;;;;;;;1034807;28;20029;-73
2022/11/23 02:32:28;;;;;;;33.38;13.90;;;;;;;;;;1038926;28;20104;-74
2022/11/23 02:32:58;;;;;;;29.70;13.88;;;;;;;;;;1037512;28;20072;-74
2022/11/23 02:33:29;;;;;;;31.88;14.63;;;;;;;;;;1037830;28;20036;-74
2022/11/23 02:34:00;;;;;;;39.45;16.33;;;;;;;;;;1037307;28;20041;-73
2022/11/23 02:34:31;;;;;;;47.67;13.80;;;;;;;;;;1038712;28;20033;-73
2022/11/23 02:35:05;;;;;;;29.67;13.25;;;;;;;;;;1039137;28;20481;-73
2022/11/23 02:35:46;;;;;;;44.90;15.57;;;;;;;;;;1039776;28;20116;-74
2022/11/23 02:36:38;;;;;;;32.90;13.60;;;;;;;;;;1040373;28;20025;-75
2022/11/23 02:37:08;;;;;;;28.92;13.65;;;;;;;;;;1038523;28;20108;-74
2022/11/23 02:37:41;;;;;;;29.83;11.07;;;;;;;;;;1039398;28;20029;-74
2022/11/23 02:38:12;;;;;;;30.45;12.98;;;;;;;;;;1038797;28;20024;-73
2022/11/23 02:38:44;;;;;;;30.30;12.48;;;;;;;;;;1040445;28;20033;-74
2022/11/23 02:39:17;;;;;;;36.35;13.75;;;;;;;;;;1039814;28;20081;-74
2022/11/23 02:39:49;;;;;;;37.88;13.82;;;;;;;;;;1039938;28;20575;-74
2022/11/23 02:40:40;;;;;;;34.17;12.50;;;;;;;;;;1039089;28;20025;-74
2022/11/23 02:41:11;;;;;;;30.10;11.65;;;;;;;;;;1038949;28;20532;-74
2022/11/23 02:41:47;;;;;;;31.85;12.73;;;;;;;;;;1039196;28;20028;-73
2022/11/23 02:42:19;;;;;;;29.10;13.50;;;;;;;;;;1038552;28;20017;-74
2022/11/23 02:42:50;;;;;;;29.10;11.80;;;;;;;;;;1034585;28;20041;-75
2022/11/23 02:43:21;;;;;;;24.90;10.95;;;;;;;;;;1032395;28;20018;-75
2022/11/23 02:43:55;;;;;;;43.25;15.68;;;;;;;;;;1032882;28;20121;-75
2022/11/23 02:44:32;;;;;;;30.52;13.50;;;;;;;;;;1037013;28;20116;-74
2022/11/23 02:45:32;;;;;;;35.22;13.63;;;;;;;;;;1038382;28;20394;-75
2022/11/23 02:46:03;;;;;;;29.33;10.60;;;;;;;;;;1025671;28;20030;-75
2022/11/23 02:46:34;;;;;;;25.88;11.73;;;;;;;;;;1038032;28;20026;-75
2022/11/23 02:47:06;;;;;;;22.48;11.00;;;;;;;;;;1035056;28;20030;-75
2022/11/23 02:47:37;;;;;;;22.10;10.30;;;;;;;;;;1031843;28;20540;-75
2022/11/23 02:48:09;;;;;;;24.95;10.77;;;;;;;;;;1031483;28;20034;-77
2022/11/23 02:48:39;;;;;;;29.73;10.23;;;;;;;;;;1030294;28;20160;-75
2022/11/23 02:49:10;;;;;;;23.63;10.73;;;;;;;;;;1029693;28;20108;-75
2022/11/23 02:49:41;;;;;;;30.02;12.70;;;;;;;;;;1034228;28;20036;-76
2022/11/23 02:50:12;;;;;;;28.02;13.02;;;;;;;;;;1026058;28;20538;-76
2022/11/23 02:50:43;;;;;;;31.33;11.48;;;;;;;;;;1034094;28;20557;-75
2022/11/23 02:51:14;;;;;;;20.23;10.10;;;;;;;;;;1034689;28;20028;-76
2022/11/23 02:51:44;;;;;;;24.83;9.90;;;;;;;;;;1036385;28;20032;-74
2022/11/23 02:52:15;;;;;;;27.42;12.70;;;;;;;;;;1036366;28;20032;-74
2022/11/23 02:52:46;;;;;;;22.80;8.30;;;;;;;;;;1033310;28;20026;-75
2022/11/23 02:53:18;;;;;;;20.58;9.70;;;;;;;;;;1029218;28;20034;-74
2022/11/23 02:53:49;;;;;;;25.58;10.93;;;;;;;;;;1028893;28;20538;-74
2022/11/23 02:54:19;;;;;;;18.55;8.88;;;;;;;;;;1029421;28;20042;-76
2022/11/23 02:54:50;;;;;;;22.00;9.82;;;;;;;;;;1032503;28;20526;-76
2022/11/23 02:55:21;;;;;;;16.17;7.80;;;;;;;;;;1034549;28;20095;-75
2022/11/23 02:55:51;;;;;;;20.08;9.45;;;;;;;;;;1034701;28;20211;-74
2022/11/23 02:56:22;;;;;;;17.45;8.60;;;;;;;;;;1033409;28;20390;-75
2022/11/23 02:56:53;;;;;;;15.70;7.97;;;;;;;;;;1035706;28;20133;-75
2022/11/23 02:57:24;;;;;;;18.50;9.95;;;;;;;;;;1039508;28;20812;-75
2022/11/23 02:57:58;;;;;;;16.65;9.25;;;;;;;;;;1043328;28;20029;-78
2022/11/23 02:58:30;;;;;;;16.73;6.65;;;;;;;;;;1038212;28;20028;-75
2022/11/23 02:59:01;;;;;;;20.15;7.47;;;;;;;;;;1032999;28;20025;-74
2022/11/23 02:59:32;;;;;;;23.52;8.68;;;;;;;;;;1033543;28;20021;-75
2022/11/23 03:00:03;;;;;;;13.32;6.30;;;;;;;;;;1034259;28;20029;-74
2022/11/23 03:00:34;;;;;;;17.95;8.23;;;;;;;;;;1032383;28;21132;-76
2022/11/23 03:01:05;;;;;;;16.83;6.10;;;;;;;;;;1032497;28;20017;-77
2022/11/23 03:01:39;;;;;;;17.92;9.15;;;;;;;;;;1030220;28;20033;-76
2022/11/23 03:02:09;;;;;;;15.75;8.10;;;;;;;;;;1031936;28;20033;-79
2022/11/23 03:02:40;;;;;;;15.65;7.93;;;;;;;;;;1030050;28;20030;-77
2022/11/23 03:03:11;;;;;;;21.58;8.48;;;;;;;;;;1024715;28;20445;-77
2022/11/23 03:03:42;;;;;;;17.50;8.15;;;;;;;;;;1026342;28;20026;-75
2022/11/23 03:04:14;;;;;;;14.43;7.93;;;;;;;;;;1027005;28;20359;-76
2022/11/23 03:04:46;;;;;;;14.85;7.75;;;;;;;;;;1029055;28;20034;-76
2022/11/23 03:05:18;;;;;;;15.65;7.75;;;;;;;;;;1028698;28;20026;-75
2022/11/23 03:05:50;;;;;;;19.05;8.82;;;;;;;;;;1024831;28;20452;-75
2022/11/23 03:06:23;;;;;;;15.73;8.05;;;;;;;;;;1025812;28;20022;-76
2022/11/23 03:06:55;;;;;;;23.67;9.82;;;;;;;;;;1022325;28;20031;-76
2022/11/23 03:07:27;;;;;;;26.55;9.02;;;;;;;;;;1030855;28;20088;-76
2022/11/23 03:07:59;;;;;;;17.83;9.55;;;;;;;;;;1030476;28;20059;-76
2022/11/23 03:08:32;;;;;;;21.48;9.40;;;;;;;;;;1031597;28;20026;-77
2022/11/23 03:09:04;;;;;;;18.58;8.45;;;;;;;;;;1028579;28;20477;-75